sensor_id;sensor_type;location;lat;lon;timestamp;pressure;altitude;pressure_sealevel;temperature;humidity
53514;BME280;39768;54.148;12.174;2023-03-20T00:08:22;101396.81;;;13.90;100.00
53514;BME280;39768;54.148;12.174;2023-03-20T00:12:50;101407.59;;;13.84;100.00
53514;BME280;39768;54.148;12.174;2023-03-20T00:16:52;101395.34;;;13.71;100.00
53514;BME280;39768;54.148;12.174;2023-03-20T00:37:40;101424.28;;;11.73;100.00
53514;BME280;39768;54.148;12.174;2023-03-20T00:42:45;101423.75;;;11.21;100.00
53514;BME280;39768;54.148;12.174;2023-03-20T00:47:34;101422.88;;;11.20;100.00
53514;BME280;39768;54.148;12.174;2023-03-20T00:51:38;101427.19;;;11.41;100.00
53514;BME280;39768;54.148;12.174;2023-03-20T00:55:40;101434.19;;;11.57;100.00
53514;BME280;39768;54.148;12.174;2023-03-20T00:59:57;101424.34;;;11.67;100.00
53514;BME280;39768;54.148;12.174;2023-03-20T01:04:20;101433.91;;;11.94;100.00
53514;BME280;39768;54.148;12.174;2023-03-20T01:08:41;101417.97;;;11.89;100.00
53514;BME280;39768;54.148;12.174;2023-03-20T01:13:03;101420.56;;;12.02;100.00
53514;BME280;39768;54.148;12.174;2023-03-20T01:17:26;101421.50;;;11.93;100.00
53514;BME280;39768;54.148;12.174;2023-03-20T01:22:31;101429.19;;;12.26;100.00
53514;BME280;39768;54.148;12.174;2023-03-20T01:28:15;101422.13;;;12.24;100.00
53514;BME280;39768;54.148;12.174;2023-03-20T01:32:19;101420.34;;;12.23;100.00
53514;BME280;39768;54.148;12.174;2023-03-20T01:36:25;101420.28;;;12.30;100.00
53514;BME280;39768;54.148;12.174;2023-03-20T01:45:35;101414.84;;;12.41;100.00
53514;BME280;39768;54.148;12.174;2023-03-20T01:54:29;101413.88;;;12.48;100.00
53514;BME280;39768;54.148;12.174;2023-03-20T01:58:40;101412.25;;;12.33;100.00
53514;BME280;39768;54.148;12.174;2023-03-20T02:08:27;101419.75;;;11.92;100.00
53514;BME280;39768;54.148;12.174;2023-03-20T02:12:30;101413.34;;;12.14;100.00
53514;BME280;39768;54.148;12.174;2023-03-20T02:16:33;101424.75;;;12.27;100.00
53514;BME280;39768;54.148;12.174;2023-03-20T02:44:34;101434.09;;;11.66;100.00
53514;BME280;39768;54.148;12.174;2023-03-20T02:53:46;101433.34;;;11.48;100.00
53514;BME280;39768;54.148;12.174;2023-03-20T02:58:01;101435.84;;;11.71;100.00
53514;BME280;39768;54.148;12.174;2023-03-20T03:06:42;101439.00;;;12.21;100.00
53514;BME280;39768;54.148;12.174;2023-03-20T03:21:17;101414.88;;;12.36;100.00
53514;BME280;39768;54.148;12.174;2023-03-20T03:25:22;101420.44;;;12.14;100.00
53514;BME280;39768;54.148;12.174;2023-03-20T03:29:27;101416.78;;;12.24;100.00
53514;BME280;39768;54.148;12.174;2023-03-20T03:33:31;101410.41;;;12.42;100.00
53514;BME280;39768;54.148;12.174;2023-03-20T03:37:48;101417.81;;;12.11;100.00
53514;BME280;39768;54.148;12.174;2023-03-20T03:48:39;101425.34;;;11.52;100.00
53514;BME280;39768;54.148;12.174;2023-03-20T03:53:23;101416.28;;;11.81;100.00
53514;BME280;39768;54.148;12.174;2023-03-20T03:58:51;101417.09;;;11.90;100.00
53514;BME280;39768;54.148;12.174;2023-03-20T04:03:58;101406.47;;;11.87;100.00
53514;BME280;39768;54.148;12.174;2023-03-20T04:09:34;101406.56;;;11.80;100.00
53514;BME280;39768;54.148;12.174;2023-03-20T04:13:36;101405.53;;;11.94;100.00
53514;BME280;39768;54.148;12.174;2023-03-20T04:17:38;101402.88;;;11.96;100.00
53514;BME280;39768;54.148;12.174;2023-03-20T04:21:41;101403.84;;;11.84;100.00
53514;BME280;39768;54.148;12.174;2023-03-20T04:25:42;101406.47;;;11.89;100.00
53514;BME280;39768;54.148;12.174;2023-03-20T04:29:44;101407.28;;;11.97;100.00
53514;BME280;39768;54.148;12.174;2023-03-20T04:34:00;101405.50;;;11.99;100.00
53514;BME280;39768;54.148;12.174;2023-03-20T04:38:29;101402.00;;;11.92;100.00
53514;BME280;39768;54.148;12.174;2023-03-20T04:42:31;101403.78;;;11.89;100.00
53514;BME280;39768;54.148;12.174;2023-03-20T04:46:36;101406.53;;;11.84;100.00
53514;BME280;39768;54.148;12.174;2023-03-20T04:50:47;101403.66;;;12.04;100.00
53514;BME280;39768;54.148;12.174;2023-03-20T04:54:50;101396.41;;;12.21;100.00
53514;BME280;39768;54.148;12.174;2023-03-20T04:58:52;101400.28;;;11.87;100.00
53514;BME280;39768;54.148;12.174;2023-03-20T05:02:55;101396.41;;;12.21;100.00
53514;BME280;39768;54.148;12.174;2023-03-20T05:06:57;101391.25;;;12.05;100.00
53514;BME280;39768;54.148;12.174;2023-03-20T05:11:27;101400.78;;;12.30;100.00
53514;BME280;39768;54.148;12.174;2023-03-20T05:16:11;101390.03;;;12.36;100.00
53514;BME280;39768;54.148;12.174;2023-03-20T05:20:55;101388.41;;;12.24;100.00
53514;BME280;39768;54.148;12.174;2023-03-20T05:25:04;101388.34;;;12.30;100.00
53514;BME280;39768;54.148;12.174;2023-03-20T05:29:23;101393.69;;;12.29;100.00
53514;BME280;39768;54.148;12.174;2023-03-20T05:33:43;101407.50;;;11.70;100.00
53514;BME280;39768;54.148;12.174;2023-03-20T05:38:14;101414.53;;;11.81;100.00
53514;BME280;39768;54.148;12.174;2023-03-20T05:42:25;101407.53;;;11.63;100.00
53514;BME280;39768;54.148;12.174;2023-03-20T05:46:50;101413.50;;;11.96;100.00
53514;BME280;39768;54.148;12.174;2023-03-20T05:51:10;101417.78;;;12.15;100.00
53514;BME280;39768;54.148;12.174;2023-03-20T05:55:27;101417.94;;;11.97;100.00
53514;BME280;39768;54.148;12.174;2023-03-20T05:59:47;101409.22;;;11.80;100.00
53514;BME280;39768;54.148;12.174;2023-03-20T06:03:59;101410.97;;;11.84;100.00
53514;BME280;39768;54.148;12.174;2023-03-20T06:08:24;101417.25;;;11.68;100.00
53514;BME280;39768;54.148;12.174;2023-03-20T06:12:27;101424.47;;;11.46;100.00
53514;BME280;39768;54.148;12.174;2023-03-20T06:16:30;101424.47;;;11.52;100.00
53514;BME280;39768;54.148;12.174;2023-03-20T06:20:32;101434.22;;;11.45;100.00
53514;BME280;39768;54.148;12.174;2023-03-20T06:24:36;101439.63;;;11.30;100.00
53514;BME280;39768;54.148;12.174;2023-03-20T06:28:39;101447.88;;;10.74;100.00
53514;BME280;39768;54.148;12.174;2023-03-20T06:32:43;101447.75;;;11.10;100.00
53514;BME280;39768;54.148;12.174;2023-03-20T06:36:46;101441.47;;;11.26;100.00
53514;BME280;39768;54.148;12.174;2023-03-20T06:40:53;101457.53;;;10.91;100.00
53514;BME280;39768;54.148;12.174;2023-03-20T06:44:56;101450.47;;;10.84;100.00
53514;BME280;39768;54.148;12.174;2023-03-20T06:49:13;101459.25;;;11.11;100.00
53514;BME280;39768;54.148;12.174;2023-03-20T06:53:15;101454.66;;;11.40;100.00
53514;BME280;39768;54.148;12.174;2023-03-20T06:57:35;101453.69;;;11.56;100.00
53514;BME280;39768;54.148;12.174;2023-03-20T07:01:37;101456.53;;;11.24;100.00
53514;BME280;39768;54.148;12.174;2023-03-20T07:05:40;101459.81;;;11.68;100.00
53514;BME280;39768;54.148;12.174;2023-03-20T07:09:45;101456.28;;;11.64;100.00
53514;BME280;39768;54.148;12.174;2023-03-20T07:13:47;101463.31;;;11.77;100.00
53514;BME280;39768;54.148;12.174;2023-03-20T07:18:15;101461.19;;;12.17;100.00
53514;BME280;39768;54.148;12.174;2023-03-20T07:22:20;101460.03;;;12.47;100.00
53514;BME280;39768;54.148;12.174;2023-03-20T07:26:24;101453.19;;;12.22;100.00
53514;BME280;39768;54.148;12.174;2023-03-20T07:30:26;101457.94;;;11.85;100.00
53514;BME280;39768;54.148;12.174;2023-03-20T07:34:28;101460.47;;;12.02;100.00
53514;BME280;39768;54.148;12.174;2023-03-20T07:38:31;101470.56;;;11.48;100.00
53514;BME280;39768;54.148;12.174;2023-03-20T07:42:43;101474.69;;;11.99;100.00
53514;BME280;39768;54.148;12.174;2023-03-20T07:46:47;101485.44;;;11.84;100.00
53514;BME280;39768;54.148;12.174;2023-03-20T07:50:49;101487.09;;;12.00;100.00
53514;BME280;39768;54.148;12.174;2023-03-20T07:54:51;101488.16;;;11.72;100.00
53514;BME280;39768;54.148;12.174;2023-03-20T07:58:54;101488.22;;;11.58;100.00
53514;BME280;39768;54.148;12.174;2023-03-20T08:02:55;101479.25;;;11.79;100.00
53514;BME280;39768;54.148;12.174;2023-03-20T08:06:57;101481.97;;;11.70;100.00
53514;BME280;39768;54.148;12.174;2023-03-20T08:10:59;101485.63;;;11.44;100.00
53514;BME280;39768;54.148;12.174;2023-03-20T08:15:00;101485.56;;;11.59;100.00
53514;BME280;39768;54.148;12.174;2023-03-20T08:19:02;101482.94;;;11.56;100.00
53514;BME280;39768;54.148;12.174;2023-03-20T08:23:05;101481.03;;;11.80;100.00
53514;BME280;39768;54.148;12.174;2023-03-20T08:27:08;101490.88;;;11.59;100.00
53514;BME280;39768;54.148;12.174;2023-03-20T08:31:09;101489.66;;;12.14;100.00
53514;BME280;39768;54.148;12.174;2023-03-20T08:35:11;101488.94;;;11.89;100.00
53514;BME280;39768;54.148;12.174;2023-03-20T08:39:32;101495.09;;;11.98;100.00
53514;BME280;39768;54.148;12.174;2023-03-20T08:43:45;101494.41;;;11.64;100.00
53514;BME280;39768;54.148;12.174;2023-03-20T08:48:20;101495.00;;;12.11;100.00
53514;BME280;39768;54.148;12.174;2023-03-20T08:52:41;101505.25;;;11.22;100.00
53514;BME280;39768;54.148;12.174;2023-03-20T08:56:44;101501.50;;;11.62;100.00
53514;BME280;39768;54.148;12.174;2023-03-20T09:00:55;101503.34;;;11.47;100.00
53514;BME280;39768;54.148;12.174;2023-03-20T09:06:09;101498.81;;;11.69;100.00
53514;BME280;39768;54.148;12.174;2023-03-20T09:10:20;101506.91;;;11.44;100.00
53514;BME280;39768;54.148;12.174;2023-03-20T09:14:23;101498.94;;;11.43;100.00
53514;BME280;39768;54.148;12.174;2023-03-20T09:18:25;101494.47;;;11.54;100.00
53514;BME280;39768;54.148;12.174;2023-03-20T09:22:26;101493.47;;;11.76;100.00
53514;BME280;39768;54.148;12.174;2023-03-20T09:26:28;101494.50;;;11.46;100.00
53514;BME280;39768;54.148;12.174;2023-03-20T09:30:29;101500.75;;;11.41;100.00
53514;BME280;39768;54.148;12.174;2023-03-20T09:34:31;101498.97;;;11.41;100.00
53514;BME280;39768;54.148;12.174;2023-03-20T09:38:32;101501.22;;;12.05;100.00
53514;BME280;39768;54.148;12.174;2023-03-20T09:43:12;101496.09;;;11.84;100.00
53514;BME280;39768;54.148;12.174;2023-03-20T09:47:45;101506.84;;;11.58;100.00
53514;BME280;39768;54.148;12.174;2023-03-20T09:51:52;101508.50;;;11.73;100.00
53514;BME280;39768;54.148;12.174;2023-03-20T09:55:56;101508.44;;;11.91;100.00
53514;BME280;39768;54.148;12.174;2023-03-20T10:00:05;101511.16;;;11.83;100.00
53514;BME280;39768;54.148;12.174;2023-03-20T10:04:12;101508.94;;;12.42;100.00
53514;BME280;39768;54.148;12.174;2023-03-20T10:08:15;101511.88;;;12.08;100.00
53514;BME280;39768;54.148;12.174;2023-03-20T10:12:45;101516.38;;;12.00;100.00
53514;BME280;39768;54.148;12.174;2023-03-20T10:21:14;101514.78;;;11.69;100.00
53514;BME280;39768;54.148;12.174;2023-03-20T10:26:20;101500.31;;;12.12;100.00
53514;BME280;39768;54.148;12.174;2023-03-20T10:31:20;101492.06;;;12.43;100.00
53514;BME280;39768;54.148;12.174;2023-03-20T10:35:33;101485.38;;;11.91;100.00
53514;BME280;39768;54.148;12.174;2023-03-20T10:44:07;101482.03;;;12.67;100.00
53514;BME280;39768;54.148;12.174;2023-03-20T10:49:15;101484.25;;;12.20;100.00
53514;BME280;39768;54.148;12.174;2023-03-20T10:53:30;101476.94;;;12.45;100.00
53514;BME280;39768;54.148;12.174;2023-03-20T10:57:38;101495.44;;;12.60;100.00
53514;BME280;39768;54.148;12.174;2023-03-20T11:01:42;101482.94;;;12.63;100.00
53514;BME280;39768;54.148;12.174;2023-03-20T11:05:43;101481.47;;;12.32;100.00
53514;BME280;39768;54.148;12.174;2023-03-20T11:10:12;101478.97;;;13.02;100.00
53514;BME280;39768;54.148;12.174;2023-03-20T11:14:23;101479.53;;;12.51;100.00
53514;BME280;39768;54.148;12.174;2023-03-20T11:18:25;101482.94;;;12.63;100.00
53514;BME280;39768;54.148;12.174;2023-03-20T11:22:27;101476.59;;;12.77;100.00
53514;BME280;39768;54.148;12.174;2023-03-20T11:26:38;101478.50;;;12.67;100.00
53514;BME280;39768;54.148;12.174;2023-03-20T11:30:40;101464.19;;;12.76;100.00
53514;BME280;39768;54.148;12.174;2023-03-20T11:39:24;101466.34;;;12.40;100.00
53514;BME280;39768;54.148;12.174;2023-03-20T11:43:26;101468.59;;;12.78;100.00
53514;BME280;39768;54.148;12.174;2023-03-20T11:47:31;101473.31;;;12.52;100.00
53514;BME280;39768;54.148;12.174;2023-03-20T11:51:35;101465.13;;;12.73;100.00
53514;BME280;39768;54.148;12.174;2023-03-20T11:55:38;101473.41;;;12.43;100.00
53514;BME280;39768;54.148;12.174;2023-03-20T11:59:39;101461.63;;;12.65;100.00
53514;BME280;39768;54.148;12.174;2023-03-20T12:03:45;101453.81;;;12.47;100.00
53514;BME280;39768;54.148;12.174;2023-03-20T12:07:51;101459.94;;;12.59;100.00
53514;BME280;39768;54.148;12.174;2023-03-20T12:12:11;101457.28;;;12.58;100.00
53514;BME280;39768;54.148;12.174;2023-03-20T12:16:20;101456.03;;;12.89;100.00
53514;BME280;39768;54.148;12.174;2023-03-20T12:20:32;101449.53;;;13.12;100.00
53514;BME280;39768;54.148;12.174;2023-03-20T12:25:00;101444.16;;;13.19;100.00
53514;BME280;39768;54.148;12.174;2023-03-20T12:29:10;101438.97;;;13.05;100.00
53514;BME280;39768;54.148;12.174;2023-03-20T12:37:25;101436.69;;;12.75;100.00
53514;BME280;39768;54.148;12.174;2023-03-20T12:46:02;101439.91;;;13.01;100.00
53514;BME280;39768;54.148;12.174;2023-03-20T12:50:24;101428.75;;;13.38;100.00
53514;BME280;39768;54.148;12.174;2023-03-20T12:58:51;101433.16;;;13.40;100.00
53514;BME280;39768;54.148;12.174;2023-03-20T13:03:18;101432.28;;;13.40;100.00
53514;BME280;39768;54.148;12.174;2023-03-20T13:07:38;101424.59;;;13.19;100.00
53514;BME280;39768;54.148;12.174;2023-03-20T13:16:19;101426.91;;;13.43;100.00
53514;BME280;39768;54.148;12.174;2023-03-20T13:20:31;101423.00;;;13.65;100.00
53514;BME280;39768;54.148;12.174;2023-03-20T13:24:48;101421.59;;;13.43;100.00
53514;BME280;39768;54.148;12.174;2023-03-20T13:28:56;101408.75;;;13.68;100.00
53514;BME280;39768;54.148;12.174;2023-03-20T13:33:23;101407.53;;;13.32;100.00
53514;BME280;39768;54.148;12.174;2023-03-20T13:37:34;101410.09;;;13.38;100.00
53514;BME280;39768;54.148;12.174;2023-03-20T13:41:39;101413.81;;;13.85;97.60
53514;BME280;39768;54.148;12.174;2023-03-20T13:45:41;101412.53;;;13.53;100.00
53514;BME280;39768;54.148;12.174;2023-03-20T13:49:52;101416.13;;;13.51;99.11
53514;BME280;39768;54.148;12.174;2023-03-20T13:54:17;101418.09;;;13.36;98.90
53514;BME280;39768;54.148;12.174;2023-03-20T13:58:42;101410.38;;;13.20;97.97
53514;BME280;39768;54.148;12.174;2023-03-20T14:07:34;101412.03;;;13.27;98.25
53514;BME280;39768;54.148;12.174;2023-03-20T14:11:36;101403.34;;;13.10;99.02
53514;BME280;39768;54.148;12.174;2023-03-20T14:15:44;101413.13;;;13.73;95.63
53514;BME280;39768;54.148;12.174;2023-03-20T14:19:48;101403.47;;;13.02;97.80
53514;BME280;39768;54.148;12.174;2023-03-20T14:24:05;101415.22;;;12.86;100.00
53514;BME280;39768;54.148;12.174;2023-03-20T14:36:41;101405.97;;;13.13;99.88
53514;BME280;39768;54.148;12.174;2023-03-20T14:45:37;101409.59;;;13.08;99.42
53514;BME280;39768;54.148;12.174;2023-03-20T14:53:42;101393.53;;;13.16;98.68
53514;BME280;39768;54.148;12.174;2023-03-20T14:57:44;101398.34;;;13.51;97.37
53514;BME280;39768;54.148;12.174;2023-03-20T15:01:58;101403.22;;;13.22;99.82
53514;BME280;39768;54.148;12.174;2023-03-20T15:06:06;101405.84;;;13.25;99.38
53514;BME280;39768;54.148;12.174;2023-03-20T15:10:09;101410.66;;;12.95;99.69
53514;BME280;39768;54.148;12.174;2023-03-20T15:14:21;101406.78;;;13.21;97.96
53514;BME280;39768;54.148;12.174;2023-03-20T15:18:26;101417.38;;;13.25;98.39
53514;BME280;39768;54.148;12.174;2023-03-20T15:22:27;101407.56;;;13.29;96.43
53514;BME280;39768;54.148;12.174;2023-03-20T15:26:31;101413.22;;;13.04;98.45
53514;BME280;39768;54.148;12.174;2023-03-20T15:30:36;101407.66;;;13.21;97.09
53514;BME280;39768;54.148;12.174;2023-03-20T15:34:40;101408.97;;;12.88;97.60
53514;BME280;39768;54.148;12.174;2023-03-20T15:38:43;101395.53;;;12.97;98.55
53514;BME280;39768;54.148;12.174;2023-03-20T15:42:51;101400.16;;;12.82;99.96
53514;BME280;39768;54.148;12.174;2023-03-20T15:46:57;101401.44;;;12.49;100.00
53514;BME280;39768;54.148;12.174;2023-03-20T15:51:02;101404.41;;;12.98;99.71
53514;BME280;39768;54.148;12.174;2023-03-20T15:55:08;101403.16;;;12.56;100.00
53514;BME280;39768;54.148;12.174;2023-03-20T15:59:14;101402.31;;;12.49;100.00
53514;BME280;39768;54.148;12.174;2023-03-20T16:03:19;101399.50;;;12.63;100.00
53514;BME280;39768;54.148;12.174;2023-03-20T16:07:26;101393.56;;;13.15;97.44
53514;BME280;39768;54.148;12.174;2023-03-20T16:11:39;101389.25;;;13.01;97.27
53514;BME280;39768;54.148;12.174;2023-03-20T16:15:41;101396.34;;;13.02;98.77
53514;BME280;39768;54.148;12.174;2023-03-20T16:19:43;101389.94;;;13.20;96.82
53514;BME280;39768;54.148;12.174;2023-03-20T16:23:49;101389.66;;;13.37;96.09
53514;BME280;39768;54.148;12.174;2023-03-20T16:27:52;101397.25;;;13.01;98.53
53514;BME280;39768;54.148;12.174;2023-03-20T16:31:59;101395.19;;;13.23;96.31
53514;BME280;39768;54.148;12.174;2023-03-20T16:36:03;101402.78;;;12.85;97.59
53514;BME280;39768;54.148;12.174;2023-03-20T16:44:33;101409.66;;;12.27;100.00
53514;BME280;39768;54.148;12.174;2023-03-20T16:48:36;101398.41;;;12.79;98.85
53514;BME280;39768;54.148;12.174;2023-03-20T16:52:40;101401.53;;;13.16;97.60
53514;BME280;39768;54.148;12.174;2023-03-20T16:56:50;101411.72;;;12.79;100.00
53514;BME280;39768;54.148;12.174;2023-03-20T17:01:04;101411.72;;;12.79;98.23
53514;BME280;39768;54.148;12.174;2023-03-20T17:05:12;101412.00;;;12.59;98.24
53514;BME280;39768;54.148;12.174;2023-03-20T17:09:24;101418.72;;;12.91;97.13
53514;BME280;39768;54.148;12.174;2023-03-20T17:13:26;101417.56;;;12.33;100.00
53514;BME280;39768;54.148;12.174;2023-03-20T17:17:28;101423.72;;;12.42;100.00
53514;BME280;39768;54.148;12.174;2023-03-20T17:21:30;101428.75;;;12.67;98.21
53514;BME280;39768;54.148;12.174;2023-03-20T17:25:32;101421.78;;;12.56;98.77
53514;BME280;39768;54.148;12.174;2023-03-20T17:29:33;101431.22;;;12.84;97.93
53514;BME280;39768;54.148;12.174;2023-03-20T17:33:34;101437.63;;;12.68;99.25
53514;BME280;39768;54.148;12.174;2023-03-20T17:37:37;101439.94;;;12.16;100.00
53514;BME280;39768;54.148;12.174;2023-03-20T17:41:38;101437.97;;;12.34;100.00
53514;BME280;39768;54.148;12.174;2023-03-20T17:45:41;101446.81;;;12.41;100.00
53514;BME280;39768;54.148;12.174;2023-03-20T17:49:44;101442.66;;;12.11;100.00
53514;BME280;39768;54.148;12.174;2023-03-20T17:53:46;101441.75;;;12.12;100.00
53514;BME280;39768;54.148;12.174;2023-03-20T17:57:47;101449.63;;;12.21;100.00
53514;BME280;39768;54.148;12.174;2023-03-20T18:01:49;101451.66;;;11.96;100.00
53514;BME280;39768;54.148;12.174;2023-03-20T18:05:51;101455.09;;;12.09;100.00
53514;BME280;39768;54.148;12.174;2023-03-20T18:09:52;101450.75;;;11.99;100.00
53514;BME280;39768;54.148;12.174;2023-03-20T18:13:55;101462.25;;;12.01;100.00
53514;BME280;39768;54.148;12.174;2023-03-20T18:17:56;101454.06;;;12.24;100.00
53514;BME280;39768;54.148;12.174;2023-03-20T18:22:03;101459.38;;;12.25;100.00
53514;BME280;39768;54.148;12.174;2023-03-20T18:26:20;101459.41;;;12.19;100.00
53514;BME280;39768;54.148;12.174;2023-03-20T18:30:26;101469.31;;;12.02;100.00
53514;BME280;39768;54.148;12.174;2023-03-20T18:34:27;101463.16;;;12.02;100.00
53514;BME280;39768;54.148;12.174;2023-03-20T18:38:29;101467.53;;;12.06;100.00
53514;BME280;39768;54.148;12.174;2023-03-20T18:42:30;101473.56;;;12.27;100.00
53514;BME280;39768;54.148;12.174;2023-03-20T18:46:32;101467.69;;;11.86;100.00
53514;BME280;39768;54.148;12.174;2023-03-20T18:50:36;101469.19;;;12.17;100.00
53514;BME280;39768;54.148;12.174;2023-03-20T18:54:39;101474.50;;;12.17;100.00
53514;BME280;39768;54.148;12.174;2023-03-20T18:58:41;101464.44;;;12.50;100.00
53514;BME280;39768;54.148;12.174;2023-03-20T19:02:42;101465.72;;;12.12;100.00
53514;BME280;39768;54.148;12.174;2023-03-20T19:06:44;101470.78;;;12.40;100.00
53514;BME280;39768;54.148;12.174;2023-03-20T19:10:47;101465.72;;;12.09;100.00
53514;BME280;39768;54.148;12.174;2023-03-20T19:14:48;101473.44;;;12.40;100.00
53514;BME280;39768;54.148;12.174;2023-03-20T19:18:52;101475.50;;;12.06;100.00
53514;BME280;39768;54.148;12.174;2023-03-20T19:22:53;101480.78;;;12.12;100.00
53514;BME280;39768;54.148;12.174;2023-03-20T19:26:55;101476.28;;;12.20;100.00
53514;BME280;39768;54.148;12.174;2023-03-20T19:30:57;101485.44;;;11.87;100.00
53514;BME280;39768;54.148;12.174;2023-03-20T19:34:59;101471.16;;;11.94;100.00
53514;BME280;39768;54.148;12.174;2023-03-20T19:39:20;101470.25;;;12.01;100.00
53514;BME280;39768;54.148;12.174;2023-03-20T19:43:22;101480.00;;;12.00;100.00
53514;BME280;39768;54.148;12.174;2023-03-20T19:47:23;101481.91;;;11.80;100.00
53514;BME280;39768;54.148;12.174;2023-03-20T19:51:25;101476.22;;;12.26;100.00
53514;BME280;39768;54.148;12.174;2023-03-20T19:55:27;101476.75;;;12.61;100.00
53514;BME280;39768;54.148;12.174;2023-03-20T19:59:29;101462.91;;;12.26;100.00
53514;BME280;39768;54.148;12.174;2023-03-20T20:03:33;101461.88;;;12.44;100.00
53514;BME280;39768;54.148;12.174;2023-03-20T20:07:34;101467.47;;;12.16;100.00
53514;BME280;39768;54.148;12.174;2023-03-20T20:11:56;101479.22;;;11.85;100.00
53514;BME280;39768;54.148;12.174;2023-03-20T20:15:59;101475.63;;;11.87;100.00
53514;BME280;39768;54.148;12.174;2023-03-20T20:20:01;101467.53;;;12.02;100.00
53514;BME280;39768;54.148;12.174;2023-03-20T20:24:02;101467.50;;;12.09;100.00
53514;BME280;39768;54.148;12.174;2023-03-20T20:28:05;101466.38;;;12.32;100.00
53514;BME280;39768;54.148;12.174;2023-03-20T20:32:07;101470.91;;;12.24;100.00
53514;BME280;39768;54.148;12.174;2023-03-20T20:36:10;101468.84;;;12.54;100.00
53514;BME280;39768;54.148;12.174;2023-03-20T20:40:32;101470.25;;;12.01;100.00
53514;BME280;39768;54.148;12.174;2023-03-20T20:44:33;101478.06;;;12.19;100.00
53514;BME280;39768;54.148;12.174;2023-03-20T20:48:35;101474.59;;;12.11;100.00
53514;BME280;39768;54.148;12.174;2023-03-20T20:52:39;101471.94;;;12.07;100.00
53514;BME280;39768;54.148;12.174;2023-03-20T20:56:42;101479.25;;;11.80;100.00
53514;BME280;39768;54.148;12.174;2023-03-20T21:00:43;101478.13;;;12.13;100.00
53514;BME280;39768;54.148;12.174;2023-03-20T21:04:54;101478.94;;;12.20;100.00
53514;BME280;39768;54.148;12.174;2023-03-20T21:08:56;101481.78;;;12.00;100.00
53514;BME280;39768;54.148;12.174;2023-03-20T21:12:58;101473.69;;;12.11;100.00
53514;BME280;39768;54.148;12.174;2023-03-20T21:17:00;101478.25;;;11.96;100.00
53514;BME280;39768;54.148;12.174;2023-03-20T21:21:07;101476.28;;;12.18;100.00
53514;BME280;39768;54.148;12.174;2023-03-20T21:25:09;101475.53;;;12.02;100.00
53514;BME280;39768;54.148;12.174;2023-03-20T21:29:16;101479.81;;;12.20;100.00
53514;BME280;39768;54.148;12.174;2023-03-20T21:33:19;101477.13;;;12.23;100.00
53514;BME280;39768;54.148;12.174;2023-03-20T21:37:21;101479.06;;;12.03;100.00
53514;BME280;39768;54.148;12.174;2023-03-20T21:41:43;101484.47;;;11.95;100.00
53514;BME280;39768;54.148;12.174;2023-03-20T21:45:45;101482.69;;;11.94;100.00
53514;BME280;39768;54.148;12.174;2023-03-20T21:50:07;101472.03;;;12.00;100.00
53514;BME280;39768;54.148;12.174;2023-03-20T21:54:28;101482.28;;;12.43;100.00
53514;BME280;39768;54.148;12.174;2023-03-20T21:58:50;101480.41;;;12.53;100.00
53514;BME280;39768;54.148;12.174;2023-03-20T22:03:12;101475.97;;;12.52;100.00
53514;BME280;39768;54.148;12.174;2023-03-20T22:07:33;101479.94;;;12.08;100.00
53514;BME280;39768;54.148;12.174;2023-03-20T22:11:59;101478.06;;;12.19;100.00
53514;BME280;39768;54.148;12.174;2023-03-20T22:16:21;101474.50;;;12.17;100.00
53514;BME280;39768;54.148;12.174;2023-03-20T22:20:42;101487.69;;;12.34;100.00
53514;BME280;39768;54.148;12.174;2023-03-20T22:25:04;101483.47;;;12.10;100.00
53514;BME280;39768;54.148;12.174;2023-03-20T22:29:26;101475.22;;;12.41;100.00
53514;BME280;39768;54.148;12.174;2023-03-20T22:33:47;101478.00;;;12.28;100.00
53514;BME280;39768;54.148;12.174;2023-03-20T22:38:11;101471.78;;;12.29;100.00
53514;BME280;39768;54.148;12.174;2023-03-20T22:42:32;101466.00;;;12.72;100.00
53514;BME280;39768;54.148;12.174;2023-03-20T22:46:54;101473.19;;;12.62;100.00
53514;BME280;39768;54.148;12.174;2023-03-20T22:50:55;101466.03;;;12.69;100.00
53514;BME280;39768;54.148;12.174;2023-03-20T22:54:57;101481.16;;;12.65;100.00
53514;BME280;39768;54.148;12.174;2023-03-20T22:58:58;101480.66;;;12.28;100.00
53514;BME280;39768;54.148;12.174;2023-03-20T23:03:02;101475.09;;;12.50;100.00
53514;BME280;39768;54.148;12.174;2023-03-20T23:07:20;101475.31;;;12.31;100.00
53514;BME280;39768;54.148;12.174;2023-03-20T23:11:23;101479.91;;;12.11;100.00
53514;BME280;39768;54.148;12.174;2023-03-20T23:15:25;101472.09;;;11.88;100.00
53514;BME280;39768;54.148;12.174;2023-03-20T23:19:27;101469.59;;;11.62;100.00
53514;BME280;39768;54.148;12.174;2023-03-20T23:23:32;101470.50;;;11.58;100.00
53514;BME280;39768;54.148;12.174;2023-03-20T23:27:34;101476.53;;;11.89;100.00
53514;BME280;39768;54.148;12.174;2023-03-20T23:31:35;101467.38;;;12.25;100.00
53514;BME280;39768;54.148;12.174;2023-03-20T23:35:37;101468.56;;;12.80;100.00
53514;BME280;39768;54.148;12.174;2023-03-20T23:39:38;101458.97;;;12.63;100.00
53514;BME280;39768;54.148;12.174;2023-03-20T23:43:40;101464.06;;;12.86;100.00